Time;durP1;ratioP1;P1;durP2;ratioP2;P2;SDS_P1;SDS_P2;PMS_P1;PMS_P2;Temp;Humidity;BMP_temperature;BMP_pressure;BME280_temperature;BME280_humidity;BME280_pressure;Samples;Min_cycle;Max_cycle;Signal;HPM_P1;HPM_P2
2022/06/03 00:00:19;;;;;;;;;;;;;;;19.29;55.35;100582.13;5075898;28;20040;-77
2022/06/03 00:03:05;;;;;;;4.10;2.20;;;;;;;19.22;55.77;100575.59;5075916;28;19951;-76
2022/06/03 00:05:48;;;;;;;3.92;2.28;;;;;;;19.30;54.99;100575.72;5075525;28;20123;-77
2022/06/03 00:08:39;;;;;;;3.65;2.10;;;;;;;19.34;53.83;100572.59;5075299;28;20094;-77
2022/06/03 00:11:26;;;;;;;4.53;2.22;;;;;;;19.43;53.45;100577.16;5074468;28;20053;-77
2022/06/03 00:14:34;;;;;;;3.47;2.40;;;;;;;19.39;53.82;100580.28;5075726;28;20401;-77
2022/06/03 00:17:11;;;;;;;6.43;2.75;;;;;;;19.33;54.00;100570.91;5075461;28;20037;-78
2022/06/03 00:19:58;;;;;;;3.95;2.60;;;;;;;19.35;54.35;100577.00;5075077;28;20565;-78
2022/06/03 00:22:39;;;;;;;4.35;2.50;;;;;;;19.37;54.03;100588.53;5074372;28;20048;-78
2022/06/03 00:25:46;;;;;;;7.57;2.78;;;;;;;19.25;55.55;100596.94;5075273;28;20040;-77
2022/06/03 00:28:31;;;;;;;4.63;2.55;;;;;;;19.22;55.76;100592.66;5062686;28;20560;-74
2022/06/03 00:31:14;;;;;;;6.10;2.65;;;;;;;19.10;56.00;100591.06;5074991;28;20048;-75
2022/06/03 00:33:57;;;;;;;5.18;2.65;;;;;;;18.93;57.59;100599.84;5074783;28;20052;-74
2022/06/03 00:36:41;;;;;;;4.25;2.40;;;;;;;18.74;58.39;100604.19;5074633;28;20044;-74
2022/06/03 00:39:23;;;;;;;5.20;2.70;;;;;;;18.72;58.65;100600.78;5074751;28;20127;-74
2022/06/03 00:42:03;;;;;;;6.05;3.13;;;;;;;18.69;60.21;100606.44;5074732;28;20047;-73
2022/06/03 00:44:54;;;;;;;4.35;2.50;;;;;;;18.48;60.70;100600.19;5074114;28;20040;-73
2022/06/03 00:47:43;;;;;;;4.32;2.70;;;;;;;18.48;60.79;100601.03;5074368;28;20041;-74
2022/06/03 00:50:50;;;;;;;4.65;2.50;;;;;;;18.38;61.26;100610.09;5074185;28;20044;-75
2022/06/03 00:53:48;;;;;;;3.88;2.40;;;;;;;18.30;62.14;100617.00;5065948;28;20105;-82
2022/06/03 00:56:54;;;;;;;4.93;2.40;;;;;;;18.22;63.34;100622.22;5074400;28;20036;-83
2022/06/03 00:59:44;;;;;;;4.40;2.80;;;;;;;18.20;64.02;100624.19;5074177;28;20056;-85
2022/06/03 01:02:27;;;;;;;5.60;2.92;;;;;;;18.13;64.42;100624.84;5074499;28;20432;-76
2022/06/03 01:05:10;;;;;;;4.33;2.57;;;;;;;18.12;64.04;100618.59;5074507;28;20047;-76
2022/06/03 01:07:55;;;;;;;4.72;2.78;;;;;;;18.13;64.80;100617.59;5073850;28;20055;-76
2022/06/03 01:10:53;;;;;;;5.00;2.78;;;;;;;18.01;64.81;100618.66;5074307;28;20044;-79
2022/06/03 01:13:39;;;;;;;4.45;2.78;;;;;;;17.95;64.38;100605.69;5071210;28;20114;-80
2022/06/03 01:16:24;;;;;;;4.78;2.95;;;;;;;18.10;63.88;100612.47;5074367;28;20450;-80
2022/06/03 01:19:08;;;;;;;5.30;2.75;;;;;;;18.06;63.23;100610.19;5074206;28;20041;-76
2022/06/03 01:21:43;;;;;;;;;;;;;;;17.99;64.14;100613.41;5074058;28;20040;-74
2022/06/03 01:24:59;;;;;;;5.25;3.00;;;;;;;18.11;63.69;100616.03;5073772;28;19920;-74
2022/06/03 01:27:56;;;;;;;5.90;3.05;;;;;;;18.07;66.18;100626.25;5015998;28;20044;-78
2022/06/03 01:30:37;;;;;;;4.85;2.92;;;;;;;18.01;65.08;100624.06;5073845;28;20470;-78
2022/06/03 01:33:35;;;;;;;6.35;3.00;;;;;;;18.02;66.50;100623.06;5072911;28;20048;-77
2022/06/03 01:36:43;;;;;;;6.55;3.10;;;;;;;18.02;65.22;100632.00;5073972;28;20041;-80
2022/06/03 01:39:49;;;;;;;6.53;3.10;;;;;;;17.98;66.59;100629.72;5074053;28;20052;-78
2022/06/03 01:42:52;;;;;;;6.72;2.92;;;;;;;17.88;66.05;100634.19;5073661;28;20123;-80
2022/06/03 01:45:35;;;;;;;;;;;;;;;17.93;66.40;100626.53;5074050;28;20037;-80
2022/06/03 01:48:18;;;;;;;5.50;3.25;;;;;;;18.07;64.99;100641.59;5073569;28;19932;-80
2022/06/03 01:51:14;;;;;;;6.35;3.20;;;;;;;17.90;65.95;100643.00;5073338;28;20119;-80
2022/06/03 01:54:20;;;;;;;5.30;2.90;;;;;;;18.00;66.08;100644.78;5073010;28;20468;-79
2022/06/03 01:57:16;;;;;;;5.05;3.10;;;;;;;18.13;65.03;100647.28;5072644;28;20056;-79
2022/06/03 02:00:08;;;;;;;5.70;2.92;;;;;;;18.15;64.91;100650.75;5071730;28;20139;-77
2022/06/03 02:03:10;;;;;;;5.25;2.90;;;;;;;18.12;65.25;100652.81;5073079;28;20044;-77
2022/06/03 02:06:04;;;;;;;6.03;3.22;;;;;;;17.96;67.08;100647.91;5072925;28;20033;-77
2022/06/03 02:09:11;;;;;;;5.25;3.40;;;;;;;17.90;67.62;100656.50;5073277;28;20497;-77
2022/06/03 02:12:25;;;;;;;4.97;3.10;;;;;;;17.90;68.19;100646.56;5043129;28;20044;-78
2022/06/03 02:15:25;;;;;;;4.53;3.10;;;;;;;17.97;68.19;100646.91;5073153;28;20045;-76
2022/06/03 02:18:41;;;;;;;7.95;3.28;;;;;;;17.63;70.66;100643.44;5073502;28;20273;-79
2022/06/03 02:21:39;;;;;;;6.90;3.65;;;;;;;17.72;70.10;100646.25;5052233;28;20149;-77
2022/06/03 02:24:52;;;;;;;6.90;3.45;;;;;;;17.73;70.39;100652.50;5072327;28;20056;-77
2022/06/03 02:27:53;;;;;;;4.43;3.00;;;;;;;17.65;70.13;100646.88;5045300;28;20075;-77
2022/06/03 02:30:44;;;;;;;7.65;3.28;;;;;;;17.73;69.20;100653.38;5073088;28;20045;-78
2022/06/03 02:33:29;;;;;;;7.60;3.50;;;;;;;17.88;69.13;100655.78;5072019;28;20516;-76
2022/06/03 02:36:45;;;;;;;8.52;3.45;;;;;;;17.77;69.77;100648.59;5071847;28;20071;-76
2022/06/03 02:39:27;;;;;;;6.25;3.30;;;;;;;17.79;70.05;100651.16;5068387;28;20131;-77
2022/06/03 02:42:17;;;;;;;6.45;2.85;;;;;;;17.67;70.86;100651.16;5071602;28;20493;-77
2022/06/03 02:45:16;;;;;;;7.80;3.50;;;;;;;17.55;71.53;100648.63;5075339;28;20036;-78
2022/06/03 02:48:39;;;;;;;5.28;3.17;;;;;;;17.40;72.52;100648.06;5076803;28;20090;-78
2022/06/03 02:51:34;;;;;;;5.33;3.50;;;;;;;17.38;72.68;100639.25;4998460;28;20050;-78
2022/06/03 02:54:30;;;;;;;5.55;3.58;;;;;;;17.44;73.32;100652.19;4998435;28;20073;-78
2022/06/03 02:57:33;;;;;;;5.22;3.25;;;;;;;17.34;73.74;100651.25;5072318;28;20098;-78
2022/06/03 03:00:16;;;;;;;4.78;3.10;;;;;;;17.28;73.89;100654.47;5075337;28;20052;-78
2022/06/03 03:02:59;;;;;;;;;;;;;;;17.26;74.41;100654.56;5076884;28;20075;-78
2022/06/03 03:05:44;;;;;;;5.40;3.23;;;;;;;17.13;75.37;100649.31;5075182;28;20011;-78
2022/06/03 03:08:44;;;;;;;5.45;3.58;;;;;;;17.15;75.42;100652.75;5076511;28;20044;-78
2022/06/03 03:11:53;;;;;;;8.50;3.75;;;;;;;17.23;75.59;100652.13;5076608;28;20541;-78
2022/06/03 03:14:55;;;;;;;7.55;3.58;;;;;;;17.01;76.87;100655.72;5068981;28;20058;-77
2022/06/03 03:18:19;;;;;;;5.05;3.53;;;;;;;17.24;75.87;100661.94;5076564;28;20037;-77
2022/06/03 03:21:24;;;;;;;6.00;3.45;;;;;;;17.28;75.46;100660.72;5061322;28;20059;-77
2022/06/03 03:24:27;;;;;;;5.90;3.47;;;;;;;17.48;74.82;100675.25;5076255;28;20041;-78
2022/06/03 03:27:03;;;;;;;6.38;3.15;;;;;;;17.50;74.69;100675.97;5075339;28;20135;-75
2022/06/03 03:29:50;;;;;;;6.90;3.33;;;;;;;17.48;74.37;100669.88;5075852;28;20033;-75
2022/06/03 03:32:25;;;;;;;6.13;3.20;;;;;;;17.75;73.29;100672.13;5075949;28;20044;-75
2022/06/03 03:35:28;;;;;;;6.10;3.42;;;;;;;17.91;72.88;100677.09;5076328;28;20037;-77
2022/06/03 03:38:38;;;;;;;6.45;3.45;;;;;;;18.66;69.28;100687.78;5072986;28;20410;-77
2022/06/03 03:41:40;;;;;;;5.13;3.08;;;;;;;19.43;65.22;100687.22;5075789;28;20040;-74
2022/06/03 03:44:37;;;;;;;4.93;3.17;;;;;;;20.41;60.80;100681.75;5075450;28;20123;-76
2022/06/03 03:47:50;;;;;;;6.30;3.22;;;;;;;21.08;57.35;100691.56;5075943;28;20095;-76
2022/06/03 03:50:47;;;;;;;8.20;3.42;;;;;;;20.36;59.90;100697.56;5011282;28;20050;-76
2022/06/03 03:54:09;;;;;;;7.28;3.22;;;;;;;20.67;58.82;100692.84;5062367;28;20106;-75
2022/06/03 03:57:06;;;;;;;5.97;3.40;;;;;;;21.02;56.48;100683.16;5050483;28;20139;-76
2022/06/03 04:00:12;;;;;;;5.28;3.30;;;;;;;22.66;51.68;100686.56;5075316;28;20064;-74
2022/06/03 04:03:27;;;;;;;6.15;2.92;;;;;;;22.91;50.66;100682.16;5075181;28;20050;-75
2022/06/03 04:06:23;;;;;;;5.63;3.28;;;;;;;21.88;53.07;100686.41;5039467;28;20067;-75
2022/06/03 04:09:17;;;;;;;5.22;3.00;;;;;;;22.28;51.93;100672.34;5075197;28;20063;-75
2022/06/03 04:12:15;;;;;;;5.53;3.20;;;;;;;22.95;50.49;100683.53;5075128;28;20037;-75
2022/06/03 04:15:21;;;;;;;5.28;3.03;;;;;;;22.93;50.68;100691.00;5049623;28;20131;-75
2022/06/03 04:18:04;;;;;;;7.40;3.35;;;;;;;23.86;47.76;100694.63;5012775;28;20104;-75
2022/06/03 04:21:03;;;;;;;5.40;2.80;;;;;;;23.30;48.58;100698.84;5071071;28;20131;-75
2022/06/03 04:24:09;;;;;;;6.13;3.00;;;;;;;24.43;46.79;100692.84;5074801;28;20041;-75
2022/06/03 04:27:14;;;;;;;5.65;2.70;;;;;;;23.88;47.34;100690.72;5074848;28;20068;-74
2022/06/03 04:30:32;;;;;;;6.63;2.90;;;;;;;23.86;48.03;100695.50;5074479;28;20055;-75
2022/06/03 04:33:37;;;;;;;6.03;3.08;;;;;;;24.59;46.35;100691.94;5049096;28;20056;-78
2022/06/03 04:36:53;;;;;;;4.95;2.83;;;;;;;25.28;44.67;100686.84;5074853;28;20036;-78
2022/06/03 04:40:08;;;;;;;5.25;2.90;;;;;;;25.43;43.71;100701.47;5073489;28;20098;-79
2022/06/03 04:43:18;;;;;;;5.28;2.70;;;;;;;25.34;43.89;100703.38;5074403;28;20102;-80
2022/06/03 04:46:20;;;;;;;5.63;2.78;;;;;;;25.56;43.54;100701.72;5074380;28;20470;-78
2022/06/03 04:49:33;;;;;;;4.10;2.83;;;;;;;25.46;43.89;100701.09;5074434;28;20052;-77
2022/06/03 04:52:42;;;;;;;4.93;3.20;;;;;;;25.68;43.37;100700.31;5012012;28;20048;-78
2022/06/03 04:55:43;;;;;;;6.00;3.10;;;;;;;25.59;43.70;100701.38;5074616;28;20397;-76
2022/06/03 04:58:57;;;;;;;4.55;2.55;;;;;;;25.47;43.80;100702.78;5069469;28;20052;-74
2022/06/03 05:02:27;;;;;;;7.60;3.30;;;;;;;23.58;48.15;100703.03;5074114;28;20047;-75
2022/06/03 05:05:38;;;;;;;4.35;3.10;;;;;;;23.23;50.96;100712.25;5073957;28;20048;-73
2022/06/03 05:08:51;;;;;;;8.75;3.35;;;;;;;25.38;44.93;100704.75;5018641;28;20049;-74
2022/06/03 05:12:07;;;;;;;6.00;3.08;;;;;;;25.81;43.21;100716.13;5061654;28;20140;-77
2022/06/03 05:15:16;;;;;;;6.57;3.42;;;;;;;25.94;42.54;100705.47;5073762;28;20090;-80
2022/06/03 05:18:09;;;;;;;6.53;3.38;;;;;;;27.02;40.70;100715.31;5074083;28;20037;-80
2022/06/03 05:21:05;;;;;;;5.07;2.90;;;;;;;27.69;39.25;100706.16;5061154;28;20126;-78
2022/06/03 05:23:51;;;;;;;5.90;3.10;;;;;;;27.92;38.58;100718.66;5073618;28;20045;-78
2022/06/03 05:26:49;;;;;;;6.22;3.22;;;;;;;27.04;40.49;100729.72;5072671;28;20143;-78
2022/06/03 05:29:55;;;;;;;6.28;3.38;;;;;;;27.66;38.97;100732.06;5073882;28;20040;-76
2022/06/03 05:32:53;;;;;;;6.80;3.30;;;;;;;26.82;41.46;100726.78;5072115;28;20057;-78
2022/06/03 05:36:21;;;;;;;5.65;3.40;;;;;;;25.89;43.57;100735.22;5073380;28;20045;-78
2022/06/03 05:39:25;;;;;;;6.82;3.63;;;;;;;27.15;40.41;100736.59;5011518;28;20073;-79
2022/06/03 05:42:28;;;;;;;6.18;3.35;;;;;;;28.31;38.67;100736.59;5011393;28;20088;-78
2022/06/03 05:45:33;;;;;;;7.00;3.42;;;;;;;28.53;37.79;100726.47;5073121;28;20037;-77
2022/06/03 05:48:07;;;;;;;7.82;3.00;;;;;;;28.52;38.11;100725.63;5071621;28;20413;-77
2022/06/03 05:50:47;;;;;;;6.22;2.97;;;;;;;29.05;36.71;100731.56;5072087;28;20053;-78
2022/06/03 05:53:33;;;;;;;5.55;3.38;;;;;;;28.92;36.96;100734.19;5073167;28;20044;-78
2022/06/03 05:56:31;;;;;;;6.00;3.78;;;;;;;28.69;37.32;100733.56;5073317;28;20543;-79
2022/06/03 05:59:13;;;;;;;5.63;3.30;;;;;;;28.54;37.86;100739.13;5072737;28;20131;-78
2022/06/03 06:02:07;;;;;;;6.18;3.13;;;;;;;28.80;37.39;100741.25;5072868;28;20093;-77
2022/06/03 06:04:51;;;;;;;6.88;3.30;;;;;;;29.29;36.89;100748.59;5073282;28;20051;-78
2022/06/03 06:07:28;;;;;;;5.43;3.35;;;;;;;29.62;35.66;100738.63;5073015;28;20464;-79
2022/06/03 06:10:15;;;;;;;6.35;3.15;;;;;;;29.14;36.39;100734.97;5073490;28;20049;-80
2022/06/03 06:12:53;;;;;;;5.63;3.17;;;;;;;29.70;36.08;100731.25;5072986;28;20048;-74
2022/06/03 06:16:00;;;;;;;8.25;3.33;;;;;;;29.32;36.58;100732.53;5073130;28;20041;-72
2022/06/03 06:18:42;;;;;;;5.30;3.25;;;;;;;29.37;36.48;100729.19;5075058;28;20105;-73
2022/06/03 06:21:52;;;;;;;4.33;2.83;;;;;;;30.55;34.20;100721.53;5079523;28;20090;-71
2022/06/03 06:24:40;;;;;;;7.60;2.90;;;;;;;30.66;33.79;100724.50;5050118;28;20072;-74
2022/06/03 06:27:48;;;;;;;4.63;2.53;;;;;;;31.72;30.49;100723.44;5079693;28;20054;-73
2022/06/03 06:30:22;;;;;;;7.28;2.80;;;;;;;31.57;31.09;100727.34;5079966;28;20044;-72
2022/06/03 06:33:24;;;;;;;4.45;2.95;;;;;;;31.06;31.13;100725.31;5079503;28;20045;-73
2022/06/03 06:36:24;;;;;;;4.95;2.70;;;;;;;30.42;31.99;100734.22;5079458;28;20044;-74
2022/06/03 06:39:08;;;;;;;4.28;2.50;;;;;;;30.23;32.26;100728.72;5079231;28;20047;-72
2022/06/03 06:41:47;;;;;;;6.82;2.60;;;;;;;30.81;32.53;100715.19;5078487;28;20052;-75
2022/06/03 06:44:32;;;;;;;4.05;2.60;;;;;;;30.61;31.44;100712.44;5079482;28;20110;-74
2022/06/03 06:47:10;;;;;;;5.90;2.72;;;;;;;30.36;32.23;100717.72;5079252;28;20131;-73
2022/06/03 06:49:41;;;;;;;6.80;2.88;;;;;;;30.12;33.16;100722.75;5079019;28;20049;-73
2022/06/03 06:52:44;;;;;;;3.95;2.28;;;;;;;29.77;31.16;100718.41;5079152;28;20040;-72
2022/06/03 06:55:20;;;;;;;5.88;2.70;;;;;;;29.31;30.85;100710.75;5079263;28;20040;-74
2022/06/03 06:57:50;;;;;;;3.63;2.40;;;;;;;28.03;32.20;100720.03;5079127;28;20434;-75
2022/06/03 07:00:24;;;;;;;3.45;2.35;;;;;;;27.33;33.20;100718.75;5078315;28;20139;-75
2022/06/03 07:02:57;;;;;;;4.28;2.67;;;;;;;26.72;34.94;100708.94;5077919;28;20131;-75
2022/06/03 07:05:34;;;;;;;7.68;2.83;;;;;;;26.89;34.49;100705.00;5079054;28;20478;-75
2022/06/03 07:08:10;;;;;;;3.97;2.60;;;;;;;27.59;32.99;100707.25;5079198;28;20066;-75
2022/06/03 07:10:46;;;;;;;4.22;2.60;;;;;;;27.82;32.78;100709.91;5079521;28;20040;-75
2022/06/03 07:13:20;;;;;;;4.10;2.50;;;;;;;27.24;33.65;100713.56;5079420;28;20123;-75
2022/06/03 07:16:10;;;;;;;4.30;2.65;;;;;;;27.58;33.38;100701.97;5078841;28;20093;-75
2022/06/03 07:22:03;;;;;;;5.22;2.70;;;;;;;27.72;33.06;100706.63;5079043;28;20040;-73
2022/06/03 07:24:40;;;;;;;6.70;2.50;;;;;;;27.71;33.06;100704.09;5079313;28;20044;-75
2022/06/03 07:27:16;;;;;;;5.70;2.70;;;;;;;27.09;33.23;100706.19;5079340;28;20041;-76
2022/06/03 07:29:49;;;;;;;4.32;2.60;;;;;;;27.01;33.38;100697.19;5078085;28;20040;-76
2022/06/03 07:32:22;;;;;;;4.00;2.20;;;;;;;26.79;34.34;100698.97;5075877;28;20139;-74
2022/06/03 07:34:53;;;;;;;4.82;2.03;;;;;;;26.17;34.86;100689.09;5075447;28;20071;-76
2022/06/03 07:37:29;;;;;;;4.63;2.40;;;;;;;25.76;36.26;100690.38;5074467;28;20059;-75
2022/06/03 07:40:02;;;;;;;5.22;2.53;;;;;;;25.92;35.65;100690.28;5075796;28;20048;-76
2022/06/03 07:42:41;;;;;;;3.85;2.28;;;;;;;26.20;35.76;100687.84;5075846;28;20051;-76
2022/06/03 07:45:26;;;;;;;3.70;2.20;;;;;;;26.06;35.85;100689.50;5074981;28;20062;-76
2022/06/03 07:48:05;;;;;;;5.57;2.60;;;;;;;26.45;35.78;100691.28;5075255;28;20041;-76
2022/06/03 07:50:43;;;;;;;5.25;2.50;;;;;;;26.53;35.48;100686.56;5075839;28;20047;-75
2022/06/03 07:53:18;;;;;;;7.22;2.67;;;;;;;26.75;35.48;100693.03;5075710;28;20041;-75
2022/06/03 07:55:53;;;;;;;6.03;2.80;;;;;;;26.96;35.01;100694.19;5075393;28;20040;-76
2022/06/03 07:58:23;;;;;;;3.42;2.10;;;;;;;26.60;35.65;100694.88;5075648;28;20083;-75
2022/06/03 08:00:53;;;;;;;4.75;2.50;;;;;;;26.50;36.28;100694.28;5074997;28;20411;-75
2022/06/03 08:03:25;;;;;;;4.75;2.50;;;;;;;26.63;36.43;100691.75;5075463;28;20523;-75
2022/06/03 08:06:05;;;;;;;5.85;2.90;;;;;;;26.71;36.15;100691.69;5075045;28;20066;-74
2022/06/03 08:11:30;;;;;;;4.57;2.60;;;;;;;26.34;37.17;100688.91;5075002;28;20106;-76
2022/06/03 08:14:01;;;;;;;3.78;2.53;;;;;;;26.52;37.25;100687.59;5074314;28;20123;-76
2022/06/03 08:16:35;;;;;;;3.72;2.45;;;;;;;26.60;36.20;100686.66;5075016;28;20043;-76
2022/06/03 08:19:09;;;;;;;5.15;2.70;;;;;;;26.52;36.82;100687.59;5074958;28;20040;-76
2022/06/03 08:21:42;;;;;;;5.30;2.55;;;;;;;26.53;37.06;100685.69;5073770;28;20080;-75
2022/06/03 08:24:17;;;;;;;3.65;2.55;;;;;;;26.66;36.71;100682.34;5074992;28;20051;-74
2022/06/03 08:26:51;;;;;;;5.47;2.88;;;;;;;26.61;36.72;100682.91;5075049;28;20375;-73
2022/06/03 08:29:33;;;;;;;4.13;2.35;;;;;;;26.56;36.98;100682.63;5074911;28;20106;-75
2022/06/03 08:32:06;;;;;;;4.20;2.60;;;;;;;26.55;37.38;100689.13;5073335;28;20052;-75
2022/06/03 08:34:38;;;;;;;;;;;;;;;26.74;37.23;100687.75;5075213;28;20036;-75
2022/06/03 08:37:09;;;;;;;3.55;2.38;;;;;;;26.83;36.58;100689.38;5074493;28;19920;-75
2022/06/03 08:39:40;;;;;;;3.47;2.35;;;;;;;26.80;36.43;100687.81;5075053;28;20040;-75
2022/06/03 08:42:28;;;;;;;5.88;2.40;;;;;;;26.86;37.70;100683.50;5073663;28;20045;-75
2022/06/03 08:45:15;;;;;;;3.97;2.60;;;;;;;26.88;36.96;100681.41;5074278;28;20406;-75
2022/06/03 08:47:49;;;;;;;5.05;2.60;;;;;;;26.92;36.81;100673.66;5074633;28;20078;-75
2022/06/03 08:50:29;;;;;;;6.03;2.50;;;;;;;26.55;36.98;100678.19;5074617;28;20048;-75
2022/06/03 08:53:07;;;;;;;4.63;2.58;;;;;;;26.50;37.81;100667.78;5074462;28;20123;-75
2022/06/03 08:55:41;;;;;;;4.85;2.30;;;;;;;26.51;37.30;100668.63;5074488;28;20102;-75
2022/06/03 08:58:26;;;;;;;5.07;2.90;;;;;;;26.62;37.25;100668.19;5074015;28;20052;-75
2022/06/03 09:01:07;;;;;;;5.05;3.10;;;;;;;26.86;36.88;100677.19;5074121;28;20044;-75
2022/06/03 09:03:56;;;;;;;6.50;2.83;;;;;;;26.99;37.18;100671.88;5074347;28;20057;-75
2022/06/03 09:06:39;;;;;;;4.53;2.30;;;;;;;27.04;37.01;100681.28;5074221;28;20047;-75
2022/06/03 09:09:13;;;;;;;4.05;2.45;;;;;;;27.06;36.61;100672.88;5073740;28;20118;-75
2022/06/03 09:11:51;;;;;;;5.35;2.60;;;;;;;27.01;36.60;100680.75;5074169;28;20037;-75
2022/06/03 09:14:23;;;;;;;4.43;2.53;;;;;;;26.95;35.96;100673.31;5074108;28;20432;-75
2022/06/03 09:17:03;;;;;;;3.50;2.43;;;;;;;27.18;36.31;100671.34;5073591;28;20577;-76
2022/06/03 09:19:38;;;;;;;5.55;2.88;;;;;;;27.43;36.59;100658.19;5073934;28;20281;-73
2022/06/03 09:22:13;;;;;;;4.20;2.67;;;;;;;27.33;36.07;100658.50;5073758;28;20120;-74
2022/06/03 09:24:43;;;;;;;4.32;2.60;;;;;;;27.16;36.65;100667.97;5073889;28;20049;-75
2022/06/03 09:27:17;;;;;;;5.07;2.70;;;;;;;27.16;36.15;100667.97;5073460;28;20443;-75
2022/06/03 09:29:48;;;;;;;6.07;2.42;;;;;;;27.25;36.98;100666.81;5073589;28;20037;-75
2022/06/03 09:32:20;;;;;;;4.07;2.28;;;;;;;27.35;35.64;100667.38;5073729;28;20131;-74
2022/06/03 09:34:51;;;;;;;3.72;2.25;;;;;;;27.38;35.18;100666.97;5073459;28;20147;-73
2022/06/03 09:37:25;;;;;;;4.50;2.28;;;;;;;27.47;35.21;100664.13;5073792;28;20476;-75
2022/06/03 09:39:57;;;;;;;3.88;2.55;;;;;;;27.27;35.24;100670.19;5073481;28;20048;-76
2022/06/03 09:42:27;;;;;;;4.63;2.60;;;;;;;27.55;34.73;100667.59;5072445;28;20056;-75
2022/06/03 09:44:56;;;;;;;4.43;2.58;;;;;;;27.44;34.19;100670.84;5073240;28;20036;-76
2022/06/03 09:47:25;;;;;;;4.28;2.55;;;;;;;27.52;34.30;100672.63;5073144;28;20051;-75
2022/06/03 09:49:54;;;;;;;4.25;2.40;;;;;;;27.51;34.36;100669.03;5072997;28;20072;-76
2022/06/03 09:52:26;;;;;;;4.15;2.60;;;;;;;27.52;34.81;100667.16;5073510;28;20484;-75
2022/06/03 09:55:00;;;;;;;4.35;2.63;;;;;;;27.43;35.49;100668.31;5071360;28;20569;-74
2022/06/03 09:57:32;;;;;;;3.67;2.10;;;;;;;27.33;35.52;100677.66;5073569;28;20462;-76
2022/06/03 10:00:03;;;;;;;4.10;2.58;;;;;;;27.44;35.18;100680.97;5071708;28;20102;-74
2022/06/03 10:02:32;;;;;;;4.63;2.30;;;;;;;27.60;35.05;100672.50;5072208;28;20408;-76
2022/06/03 10:05:02;;;;;;;4.05;2.30;;;;;;;27.64;34.96;100671.09;5072650;28;20494;-76
2022/06/03 10:07:32;;;;;;;9.57;2.90;;;;;;;27.79;35.03;100669.16;5073287;28;20101;-73
2022/06/03 10:12:52;;;;;;;4.03;2.60;;;;;;;27.92;34.35;100679.44;5071934;28;20049;-74
2022/06/03 10:15:40;;;;;;;5.20;2.22;;;;;;;28.00;33.92;100670.25;5073278;28;20105;-74
2022/06/03 10:18:19;;;;;;;4.82;2.40;;;;;;;27.61;34.40;100671.47;5072658;28;20044;-74
2022/06/03 10:20:49;;;;;;;3.53;2.08;;;;;;;27.26;34.42;100675.88;5071868;28;20127;-75
2022/06/03 10:23:22;;;;;;;2.95;2.15;;;;;;;27.35;34.43;100674.72;5072938;28;20124;-75
2022/06/03 10:26:19;;;;;;;4.70;2.20;;;;;;;27.56;34.53;100665.72;5072789;28;20040;-75
2022/06/03 10:28:51;;;;;;;5.53;2.50;;;;;;;27.67;34.52;100663.34;5073299;28;20041;-75
2022/06/03 10:31:21;;;;;;;4.38;2.05;;;;;;;27.77;34.57;100670.41;5072924;28;20057;-75
2022/06/03 10:33:54;;;;;;;3.60;2.33;;;;;;;27.84;35.09;100672.19;5072138;28;20457;-75
2022/06/03 10:36:24;;;;;;;5.00;2.20;;;;;;;27.70;34.50;100662.13;5073095;28;20048;-75
2022/06/03 10:38:54;;;;;;;4.30;2.20;;;;;;;27.60;34.54;100659.66;5072854;28;20040;-75
2022/06/03 10:41:34;;;;;;;4.38;2.20;;;;;;;27.67;34.60;100657.88;5072506;28;20135;-75
2022/06/03 10:44:10;;;;;;;4.50;2.20;;;;;;;27.49;34.60;100656.56;5072732;28;20119;-75
2022/06/03 10:46:38;;;;;;;3.72;2.33;;;;;;;27.52;34.68;100650.72;5072431;28;20049;-75
2022/06/03 10:49:17;;;;;;;2.88;1.80;;;;;;;27.61;34.71;100650.41;5072411;28;20047;-75
2022/06/03 11:02:56;;;;;;;4.07;1.83;;;;;;;27.57;33.87;100635.38;5072806;28;20041;-75
2022/06/03 11:05:28;;;;;;;3.67;2.10;;;;;;;27.36;34.65;100629.88;5073186;28;20102;-75
2022/06/03 11:07:59;;;;;;;2.63;1.77;;;;;;;27.81;34.18;100620.50;5075239;28;20409;-75
2022/06/03 11:10:40;;;;;;;4.20;2.20;;;;;;;28.01;33.79;100619.84;5076435;28;20441;-76
2022/06/03 11:13:24;;;;;;;4.05;2.10;;;;;;;28.16;33.30;100618.69;5075948;28;20045;-75
2022/06/03 11:15:53;;;;;;;2.95;1.92;;;;;;;28.14;33.31;100612.56;5076287;28;20044;-75
2022/06/03 11:18:26;;;;;;;4.50;2.40;;;;;;;28.38;33.13;100622.31;5076074;28;20114;-75
2022/06/03 11:20:55;;;;;;;3.67;2.15;;;;;;;28.46;32.84;100621.28;5076220;28;20044;-75
2022/06/03 11:23:24;;;;;;;3.47;2.10;;;;;;;28.38;32.80;100618.72;5074979;28;20049;-75
2022/06/03 11:26:00;;;;;;;3.17;2.10;;;;;;;28.41;32.78;100618.31;5075981;28;20094;-75
2022/06/03 11:28:38;;;;;;;4.35;2.40;;;;;;;28.50;32.79;100609.72;5076133;28;20090;-75
2022/06/03 11:31:18;;;;;;;4.22;2.30;;;;;;;28.39;32.36;100599.31;5075759;28;20050;-75
2022/06/03 11:33:53;;;;;;;3.25;2.05;;;;;;;28.43;33.31;100592.38;5075793;28;20043;-75
2022/06/03 11:36:28;;;;;;;2.97;2.00;;;;;;;28.51;32.69;100607.81;5075760;28;20481;-75
2022/06/03 11:39:01;;;;;;;4.82;2.30;;;;;;;28.60;32.41;100600.28;5075759;28;20044;-75
2022/06/03 11:41:32;;;;;;;;;;;;;;;28.18;33.08;100589.22;5076365;28;20071;-75
2022/06/03 11:44:08;;;;;;;3.22;1.90;;;;;;;28.35;32.82;100587.03;5075738;28;20016;-77
2022/06/03 11:46:59;;;;;;;5.05;2.03;;;;;;;28.56;32.66;100590.75;5075735;28;20044;-75
2022/06/03 11:49:30;;;;;;;3.72;2.17;;;;;;;28.71;32.32;100564.03;5074511;28;20063;-75
2022/06/03 11:51:58;;;;;;;5.85;2.40;;;;;;;28.57;32.28;100578.72;5075492;28;20163;-75
2022/06/03 11:54:29;;;;;;;3.60;2.10;;;;;;;28.52;32.39;100571.94;5075295;28;20068;-74
2022/06/03 11:57:00;;;;;;;5.40;2.17;;;;;;;28.67;32.26;100563.59;5075563;28;20102;-73
2022/06/03 11:59:36;;;;;;;3.88;2.03;;;;;;;28.58;32.34;100555.75;5075345;28;20130;-74
2022/06/03 12:02:17;;;;;;;4.07;2.20;;;;;;;28.56;32.29;100557.81;5075364;28;20045;-75
2022/06/03 12:04:50;;;;;;;3.28;2.10;;;;;;;28.64;32.89;100546.69;5075499;28;20059;-73
2022/06/03 12:07:32;;;;;;;3.90;2.70;;;;;;;28.81;32.28;100548.03;5073606;28;20559;-76
2022/06/03 12:10:12;;;;;;;4.47;2.35;;;;;;;29.00;32.12;100547.31;5073961;28;20068;-73
2022/06/03 12:15:40;;;;;;;4.85;2.25;;;;;;;29.16;31.87;100537.03;5075300;28;20131;-73
2022/06/03 12:18:52;;;;;;;3.10;2.03;;;;;;;29.28;31.42;100538.13;5074243;28;20072;-73
2022/06/03 12:21:55;;;;;;;4.72;2.38;;;;;;;29.33;31.80;100530.06;5074650;28;20041;-75
2022/06/03 12:24:52;;;;;;;5.28;2.67;;;;;;;29.47;31.52;100529.06;5073426;28;20060;-75
2022/06/03 12:27:24;;;;;;;5.25;2.20;;;;;;;29.36;31.62;100524.19;5074480;28;20052;-75
2022/06/03 12:30:21;;;;;;;3.78;2.40;;;;;;;29.03;32.12;100518.59;5073811;28;20098;-75
2022/06/03 12:32:56;;;;;;;4.28;2.28;;;;;;;29.06;31.78;100518.19;5074887;28;20036;-75
2022/06/03 12:35:57;;;;;;;4.65;2.10;;;;;;;29.02;32.27;100512.25;5074554;28;20083;-75
2022/06/03 12:38:53;;;;;;;3.90;2.10;;;;;;;29.34;31.55;100510.66;5074746;28;20044;-75
2022/06/03 12:41:55;;;;;;;4.20;2.00;;;;;;;29.52;31.61;100504.56;5073051;28;20455;-76
2022/06/03 12:44:40;;;;;;;4.53;1.98;;;;;;;29.62;31.15;100507.75;5071729;28;20048;-76
2022/06/03 12:47:50;;;;;;;4.00;2.13;;;;;;;29.61;31.16;100495.06;5074511;28;20072;-75
2022/06/03 12:50:37;;;;;;;3.25;2.10;;;;;;;29.84;30.93;100499.31;5073575;28;20056;-75
2022/06/03 12:53:34;;;;;;;4.20;2.40;;;;;;;29.84;30.35;100493.81;5074154;28;20044;-76
2022/06/03 12:56:12;;;;;;;4.40;2.60;;;;;;;29.79;30.89;100486.19;5074061;28;20482;-75
2022/06/03 12:58:49;;;;;;;5.18;2.63;;;;;;;29.96;31.13;100488.50;5074510;28;20055;-75
2022/06/03 13:01:42;;;;;;;5.97;2.40;;;;;;;29.96;30.14;100480.25;5072278;28;20136;-75
2022/06/03 13:04:28;;;;;;;;;;;;;;;30.03;30.19;100487.44;5074499;28;20048;-76
2022/06/03 13:07:44;;;;;;;4.30;2.35;;;;;;;29.90;29.77;100482.78;5074034;28;20375;-75
2022/06/03 13:10:26;;;;;;;4.47;2.38;;;;;;;29.97;30.60;100488.28;5011117;28;20494;-75
2022/06/03 13:12:58;;;;;;;4.47;2.30;;;;;;;29.98;29.97;100484.47;5012320;28;20112;-75
2022/06/03 13:15:46;;;;;;;6.68;2.47;;;;;;;29.94;30.08;100477.72;5054659;28;20099;-75
2022/06/03 13:18:34;;;;;;;4.35;2.10;;;;;;;29.90;30.36;100466.28;5072406;28;20052;-75
2022/06/03 13:21:21;;;;;;;2.97;2.05;;;;;;;29.62;30.70;100466.53;5073652;28;20044;-75